»·PEaware :: N8295H KBUR-KLAS

N8295H :: KBUR-KLAS

FLIGHT INFORMATION

Flight Status: Arrived
Operator: Privately registered:
United States
More flights under this callsign
Pilot: Andrew R. (27652)
Aircraft: PIPER PA-28 CHEROKEE ARCHER
(P28A)
More flights by this aircraft type
Origin: KBUR Bob Hope-Burbank
United States
Destination: KLAS McCarran Intl
United States
More flights between these airports :: More routes between these airports
Route: VNY3 DAG CRESO4
File this flight plan on PilotEdge
Remarks:
Altitude:
(Current/Filed)
9,000ft
Speed:
(Current/Filed)
100kts
Departed: 03-Mar-21 06:37 PM
Arrived: 03-Mar-21 08:05 PM
Distance/Time
Traveled:
193nm/1:28
Distance/Time
To Go:
Arrived

Flight Plot

Page will automatically refresh every two minutes.

Flight plan parsing failed; only flown route is shown


Map Options




Map Legend


Flown Route
Filed Route
Departure Airport
Arrival Airport
Navaid (VOR, NDB)
Fix

Horizontal Profiles

Position Reports

Time Latitude Longitude Heading Altitude Ground
Speed
03-Mar-21 18:02 34.200258 -118.362796 220 726ft 0kts
03-Mar-21 18:03 34.200258 -118.362796 220 726ft 0kts
03-Mar-21 18:05 34.200258 -118.362796 220 726ft 0kts
03-Mar-21 18:05 34.200258 -118.362796 220 726ft 0kts
03-Mar-21 18:06 34.200258 -118.362796 220 726ft 0kts
03-Mar-21 18:07 34.200258 -118.362796 220 726ft 0kts
03-Mar-21 18:08 34.200258 -118.362797 220 726ft 0kts
03-Mar-21 18:09 34.200258 -118.362797 220 726ft 0kts
03-Mar-21 18:10 34.200258 -118.362797 220 726ft 0kts
03-Mar-21 18:11 34.200258 -118.362797 220 726ft 0kts
03-Mar-21 18:12 34.200258 -118.362797 220 726ft 0kts
03-Mar-21 18:13 34.200258 -118.362797 220 726ft 0kts
03-Mar-21 18:14 34.200258 -118.362797 220 726ft 0kts
03-Mar-21 18:15 34.200258 -118.362797 220 726ft 0kts
03-Mar-21 18:16 34.200258 -118.362797 220 726ft 0kts
03-Mar-21 18:17 34.200258 -118.362797 220 726ft 0kts
03-Mar-21 18:18 34.200258 -118.362797 220 726ft 0kts
03-Mar-21 18:19 34.200258 -118.362797 220 726ft 0kts
03-Mar-21 18:20 34.200258 -118.362797 220 726ft 0kts
03-Mar-21 18:21 34.200258 -118.362797 220 726ft 0kts
03-Mar-21 18:22 34.200258 -118.362797 220 726ft 0kts
03-Mar-21 18:23 34.200258 -118.362797 220 726ft 0kts
03-Mar-21 18:24 34.200258 -118.362797 220 726ft 0kts
03-Mar-21 18:25 34.200258 -118.362797 220 726ft 0kts
03-Mar-21 18:26 34.200258 -118.362797 220 726ft 0kts
03-Mar-21 18:27 34.200258 -118.362797 220 726ft 0kts
03-Mar-21 18:28 34.200111 -118.363534 272 725ft 5kts
03-Mar-21 18:29 34.199753 -118.364552 180 724ft 6kts
03-Mar-21 18:30 34.199132 -118.368144 271 726ft 12kts
03-Mar-21 18:31 34.198744 -118.369002 181 726ft 0kts
03-Mar-21 18:32 34.198744 -118.369002 181 726ft 0kts
03-Mar-21 18:33 34.198744 -118.369002 181 726ft 0kts
03-Mar-21 18:34 34.198744 -118.369002 181 726ft 0kts
03-Mar-21 18:35 34.198468 -118.369009 182 725ft 10kts
03-Mar-21 18:36 34.197759 -118.361240 91 776ft 74kts
03-Mar-21 18:37 34.187414 -118.347489 208 1352ft 75kts
03-Mar-21 18:38 34.173243 -118.365299 221 1962ft 73kts
03-Mar-21 18:39 34.157560 -118.386036 221 2542ft 87kts
03-Mar-21 18:40 34.140306 -118.406302 222 3220ft 85kts
03-Mar-21 18:41 34.123185 -118.426535 223 3852ft 87kts
03-Mar-21 18:42 34.118630 -118.448889 328 4478ft 88kts
03-Mar-21 18:43 34.143253 -118.451808 335 5037ft 89kts
03-Mar-21 18:44 34.168030 -118.455390 333 5589ft 91kts
03-Mar-21 18:45 34.193433 -118.458093 326 6120ft 91kts
03-Mar-21 18:46 34.218020 -118.461798 318 6623ft 88kts
03-Mar-21 18:47 34.242116 -118.464680 309 7137ft 81kts
03-Mar-21 18:48 34.262685 -118.467403 290 7685ft 60kts
03-Mar-21 18:49 34.276009 -118.469791 277 8076ft 50kts
03-Mar-21 18:50 34.304982 -118.445841 34 8550ft 156kts
03-Mar-21 18:51 34.334565 -118.405166 20 8884ft 160kts
03-Mar-21 18:52 34.365511 -118.365471 18 9237ft 165kts
03-Mar-21 18:53 34.399536 -118.328388 14 9543ft 170kts
03-Mar-21 18:54 34.433495 -118.290138 7 9957ft 160kts
03-Mar-21 18:55 34.465648 -118.254093 13 10341ft 157kts
03-Mar-21 18:56 34.497611 -118.217155 9 10645ft 159kts
03-Mar-21 18:57 34.530301 -118.181308 16 10984ft 161kts
03-Mar-21 18:58 34.566832 -118.143861 17 11007ft 185kts
03-Mar-21 18:59 34.599364 -118.106474 27 10962ft 188kts
03-Mar-21 19:00 34.629943 -118.070112 25 10943ft 185kts
03-Mar-21 19:01 34.645629 -118.012500 106 10934ft 180kts
03-Mar-21 19:02 34.651300 -117.950452 107 10884ft 184kts
03-Mar-21 19:03 34.652207 -117.889085 115 10851ft 180kts
03-Mar-21 19:04 34.655115 -117.828488 100 10953ft 181kts
03-Mar-21 19:05 34.662778 -117.766980 82 10976ft 192kts
03-Mar-21 19:06 34.680079 -117.703889 78 10921ft 199kts
03-Mar-21 19:07 34.697057 -117.639641 80 10870ft 199kts
03-Mar-21 19:08 34.713341 -117.575473 82 10875ft 198kts
03-Mar-21 19:09 34.729091 -117.511467 81 10910ft 196kts
03-Mar-21 19:10 34.744883 -117.447627 82 10930ft 198kts
03-Mar-21 19:11 34.760372 -117.383333 80 10929ft 202kts
03-Mar-21 19:12 34.776635 -117.318079 80 10837ft 202kts
03-Mar-21 19:13 34.793013 -117.254414 82 10876ft 193kts
03-Mar-21 19:14 34.809040 -117.192657 80 10942ft 197kts
03-Mar-21 19:15 34.825434 -117.128753 80 10900ft 198kts
03-Mar-21 19:16 34.841836 -117.064774 79 10893ft 197kts
03-Mar-21 19:17 34.858431 -117.001153 81 10892ft 197kts
03-Mar-21 19:18 34.874653 -116.937314 79 10890ft 198kts
03-Mar-21 19:19 34.890578 -116.874251 80 11076ft 197kts
03-Mar-21 19:20 34.906602 -116.809712 81 11024ft 201kts
03-Mar-21 19:21 34.922796 -116.745066 79 10993ft 199kts
03-Mar-21 19:22 34.938897 -116.680337 80 10974ft 199kts
03-Mar-21 19:23 34.954451 -116.615863 82 11034ft 197kts
03-Mar-21 19:24 34.977016 -116.554589 56 11057ft 200kts
03-Mar-21 19:25 35.003862 -116.494637 60 11094ft 200kts
03-Mar-21 19:26 35.029447 -116.433995 61 11029ft 201kts
03-Mar-21 19:27 35.055081 -116.373520 61 11003ft 201kts
03-Mar-21 19:28 35.080780 -116.312754 61 10962ft 201kts
03-Mar-21 19:29 35.106162 -116.252490 60 10992ft 195kts
03-Mar-21 19:30 35.130687 -116.193800 62 10990ft 194kts
03-Mar-21 19:31 35.155359 -116.135399 60 11029ft 191kts
03-Mar-21 19:32 35.180279 -116.077145 61 11046ft 193kts
03-Mar-21 19:33 35.205765 -116.019542 59 11087ft 193kts
03-Mar-21 19:34 35.231814 -115.961310 57 11042ft 198kts
03-Mar-21 19:35 35.258772 -115.903030 56 11045ft 197kts
03-Mar-21 19:36 35.285696 -115.844919 57 11049ft 197kts
03-Mar-21 19:37 35.313361 -115.787049 39 11028ft 195kts
03-Mar-21 19:38 35.349463 -115.739971 30 11072ft 188kts
03-Mar-21 19:39 35.385769 -115.692829 30 10855ft 197kts
03-Mar-21 19:40 35.424805 -115.642452 32 10092ft 207kts
03-Mar-21 19:41 35.461374 -115.591707 34 10015ft 193kts
03-Mar-21 19:42 35.495992 -115.541383 35 10020ft 194kts
03-Mar-21 19:43 35.530937 -115.491968 33 10052ft 192kts
03-Mar-21 19:44 35.566969 -115.443945 29 10081ft 191kts
03-Mar-21 19:45 35.602869 -115.396185 29 10118ft 191kts
03-Mar-21 19:46 35.639212 -115.347915 31 10086ft 195kts
03-Mar-21 19:47 35.676620 -115.298988 14 9836ft 192kts
03-Mar-21 19:48 35.719482 -115.270380 345 9150ft 166kts
03-Mar-21 19:49 35.761638 -115.250820 351 8343ft 156kts
03-Mar-21 19:50 35.799659 -115.232385 350 8072ft 140kts
03-Mar-21 19:51 35.835700 -115.214060 350 8123ft 140kts
03-Mar-21 19:52 35.871922 -115.195601 349 8116ft 144kts
03-Mar-21 19:53 35.908171 -115.177520 348 8093ft 138kts
03-Mar-21 19:54 35.943994 -115.159953 349 8039ft 138kts
03-Mar-21 19:55 35.982746 -115.144201 355 7463ft 153kts
03-Mar-21 19:56 36.022129 -115.126499 3 6466ft 150kts
03-Mar-21 19:57 36.057273 -115.111963 2 6052ft 121kts
03-Mar-21 19:58 36.090167 -115.097768 9 5307ft 128kts
03-Mar-21 19:59 36.122413 -115.082630 14 4130ft 113kts
03-Mar-21 20:00 36.142079 -115.104890 303 3218ft 99kts
03-Mar-21 20:01 36.135115 -115.130517 230 2973ft 73kts
03-Mar-21 20:02 36.118570 -115.145613 203 2625ft 74kts
03-Mar-21 20:03 36.100389 -115.156039 203 2201ft 71kts
03-Mar-21 20:04 36.089567 -115.162259 214 2123ft 19kts
03-Mar-21 20:05 36.089408 -115.163524 293 2128ft 0kts
03-Mar-21 20:06 36.088168 -115.165426 205 2138ft 24kts
03-Mar-21 20:07 36.081906 -115.168995 203 2163ft 20kts
03-Mar-21 20:08 36.081614 -115.170577 350 2166ft 0kts
03-Mar-21 20:10 36.081614 -115.170577 350 2166ft 0kts
03-Mar-21 20:11 36.081614 -115.170577 350 2166ft 0kts
03-Mar-21 20:12 36.081614 -115.170577 350 2166ft 0kts
03-Mar-21 20:13 36.081614 -115.170577 350 2166ft 0kts
03-Mar-21 20:14 36.081614 -115.170577 350 2166ft 0kts
03-Mar-21 20:15 36.081614 -115.170577 350 2166ft 0kts
03-Mar-21 20:16 36.081614 -115.170577 350 2166ft 0kts
03-Mar-21 20:17 36.081614 -115.170577 350 2166ft 0kts
03-Mar-21 20:18 36.081614 -115.170577 350 2166ft 0kts
03-Mar-21 20:19 36.081614 -115.170577 350 2166ft 0kts
03-Mar-21 20:20 36.081614 -115.170577 350 2166ft 0kts

Navigation Log

Ident Type
Flight plan parsing failed, navigation log unavailable